createdAt,value
2023-03-14T00:01:22.107Z,3.90
2023-03-14T00:03:51.127Z,3.70
2023-03-14T00:06:20.536Z,3.90
2023-03-14T00:08:49.469Z,4.13
2023-03-14T00:11:19.692Z,3.63
2023-03-14T00:13:50.120Z,3.80
2023-03-14T00:16:21.244Z,3.63
2023-03-14T00:18:50.145Z,4.10
2023-03-14T00:21:18.817Z,3.73
2023-03-14T00:23:47.887Z,3.77
2023-03-14T00:26:18.222Z,4.00
2023-03-14T00:28:48.206Z,3.60
2023-03-14T00:31:19.305Z,4.13
2023-03-14T00:33:48.787Z,4.30
2023-03-14T00:36:19.300Z,4.77
2023-03-14T00:38:49.079Z,4.37
2023-03-14T00:41:20.346Z,4.10
2023-03-14T00:43:48.958Z,4.43
2023-03-14T00:46:19.445Z,4.27
2023-03-14T00:48:48.193Z,4.30
2023-03-14T00:51:17.075Z,3.73
2023-03-14T00:53:46.403Z,3.77
2023-03-14T00:56:15.988Z,3.90
2023-03-14T00:58:44.516Z,4.07
2023-03-14T01:01:15.489Z,3.53
2023-03-14T01:03:45.308Z,3.60
2023-03-14T01:06:16.454Z,3.20
2023-03-14T01:08:45.050Z,3.10
2023-03-14T01:11:16.237Z,3.70
2023-03-14T01:13:45.099Z,3.33
2023-03-14T01:16:15.482Z,3.60
2023-03-14T01:18:46.717Z,3.23
2023-03-14T01:21:17.145Z,3.67
2023-03-14T01:23:46.253Z,3.23
2023-03-14T01:26:16.003Z,3.30
2023-03-14T01:28:44.446Z,3.10
2023-03-14T01:31:14.366Z,3.20
2023-03-14T01:33:45.254Z,3.30
2023-03-14T01:36:14.639Z,3.50
2023-03-14T01:38:43.383Z,3.20
2023-03-14T01:41:16.989Z,3.00
2023-03-14T01:43:45.583Z,3.20
2023-03-14T01:46:35.085Z,2.90
2023-03-14T01:49:22.289Z,2.80
2023-03-14T01:51:56.503Z,3.20
2023-03-14T01:54:29.180Z,2.97
2023-03-14T01:57:00.794Z,3.00
2023-03-14T01:59:31.037Z,2.93
2023-03-14T02:02:00.163Z,3.37
2023-03-14T02:04:33.224Z,3.37
2023-03-14T02:07:06.434Z,3.17
2023-03-14T02:09:34.939Z,2.83
2023-03-14T02:12:03.422Z,2.93
2023-03-14T02:14:35.400Z,2.60
2023-03-14T02:17:06.960Z,3.00
2023-03-14T02:19:55.741Z,3.43
2023-03-14T02:22:24.462Z,2.90
2023-03-14T02:25:05.292Z,3.00
2023-03-14T02:27:36.185Z,2.87
2023-03-14T02:30:08.472Z,3.43
2023-03-14T02:32:39.883Z,2.97
2023-03-14T02:35:11.626Z,3.00
2023-03-14T02:37:44.432Z,3.00
2023-03-14T02:40:13.808Z,3.10
2023-03-14T02:42:43.524Z,3.07
2023-03-14T02:45:44.140Z,3.40
2023-03-14T02:48:18.137Z,3.33
2023-03-14T02:50:48.925Z,2.87
2023-03-14T02:53:20.722Z,3.00
2023-03-14T02:55:50.261Z,2.80
2023-03-14T02:58:21.963Z,2.90
2023-03-14T03:00:50.646Z,2.93
2023-03-14T03:03:19.393Z,3.50
2023-03-14T03:05:51.523Z,2.90
2023-03-14T03:08:20.301Z,2.67
2023-03-14T03:10:49.389Z,2.80
2023-03-14T03:13:20.022Z,2.70
2023-03-14T03:15:48.697Z,3.13
2023-03-14T03:18:17.282Z,2.63
2023-03-14T03:20:45.629Z,3.00
2023-03-14T03:23:14.366Z,2.50
2023-03-14T03:25:42.874Z,2.77
2023-03-14T03:28:11.222Z,2.70
2023-03-14T03:30:44.225Z,2.90
2023-03-14T03:33:13.565Z,3.00
2023-03-14T03:35:46.657Z,2.67
2023-03-14T03:38:15.742Z,2.77
2023-03-14T03:40:44.632Z,2.43
2023-03-14T03:43:13.357Z,2.40
2023-03-14T03:45:43.460Z,2.90
2023-03-14T03:48:13.320Z,2.60
2023-03-14T03:50:47.316Z,2.90
2023-03-14T03:53:26.829Z,2.60
2023-03-14T03:56:02.244Z,2.40
2023-03-14T03:58:31.066Z,2.73
2023-03-14T04:01:01.623Z,2.60
2023-03-14T04:03:30.360Z,3.00
2023-03-14T04:06:02.847Z,2.67
2023-03-14T04:08:32.367Z,2.57
2023-03-14T04:11:02.352Z,2.77
2023-03-14T04:13:30.956Z,2.43
2023-03-14T04:16:00.952Z,2.90
2023-03-14T04:18:31.385Z,3.23
2023-03-14T04:21:00.633Z,2.50
2023-03-14T04:23:29.174Z,3.13
2023-03-14T04:25:57.628Z,3.00
2023-03-14T04:28:26.113Z,2.97
2023-03-14T04:30:54.556Z,2.70
2023-03-14T04:33:24.435Z,2.80
2023-03-14T04:35:56.595Z,2.80
2023-03-14T04:38:25.073Z,2.73
2023-03-14T04:40:53.379Z,2.73
2023-03-14T04:43:21.739Z,3.03
2023-03-14T04:45:50.073Z,2.93
2023-03-14T04:48:18.567Z,2.50
2023-03-14T04:50:51.590Z,2.67
2023-03-14T04:53:21.208Z,3.10
2023-03-14T04:55:53.131Z,2.30
2023-03-14T04:58:22.003Z,2.33
2023-03-14T05:00:50.634Z,3.43
2023-03-14T05:03:20.287Z,2.60
2023-03-14T05:05:50.093Z,2.93
2023-03-14T05:08:18.554Z,3.23
2023-03-14T05:10:46.977Z,3.17
2023-03-14T05:13:15.407Z,2.97
2023-03-14T05:15:47.523Z,3.13
2023-03-14T05:18:15.955Z,3.20
2023-03-14T05:20:45.432Z,3.03
2023-03-14T05:23:15.228Z,3.03
2023-03-14T05:25:45.552Z,4.00
2023-03-14T05:28:13.974Z,2.80
2023-03-14T05:30:42.457Z,3.10
2023-03-14T05:33:11.704Z,2.87
2023-03-14T05:35:40.369Z,2.70
2023-03-14T05:38:09.056Z,3.03
2023-03-14T05:40:38.834Z,2.83
2023-03-14T05:43:09.164Z,2.50
2023-03-14T05:45:37.824Z,2.60
2023-03-14T05:48:07.135Z,2.63
2023-03-14T05:50:35.507Z,2.87
2023-03-14T05:53:04.300Z,2.93
2023-03-14T05:55:32.759Z,3.00
2023-03-14T05:58:02.414Z,3.53
2023-03-14T06:00:30.828Z,2.87
2023-03-14T06:02:59.338Z,3.20
2023-03-14T06:05:27.654Z,2.63
2023-03-14T06:07:56.086Z,3.03
2023-03-14T06:10:24.425Z,3.30
2023-03-14T06:12:52.827Z,3.57
2023-03-14T06:15:25.982Z,2.90
2023-03-14T06:17:56.998Z,2.83
2023-03-14T06:20:25.467Z,3.20
2023-03-14T06:22:53.831Z,3.27
2023-03-14T06:25:22.404Z,3.43
2023-03-14T06:27:50.710Z,2.97
2023-03-14T06:30:19.909Z,3.60
2023-03-14T06:32:49.814Z,3.43
2023-03-14T06:35:18.885Z,2.83
2023-03-14T06:37:47.515Z,3.23
2023-03-14T06:40:19.011Z,2.90
2023-03-14T06:42:47.956Z,2.93
2023-03-14T06:45:16.861Z,3.70
2023-03-14T06:47:45.787Z,3.93
2023-03-14T06:50:15.920Z,5.90
2023-03-14T06:52:48.963Z,5.30
2023-03-14T06:55:18.859Z,5.50
2023-03-14T06:57:48.752Z,5.57
2023-03-14T07:00:18.668Z,5.10
2023-03-14T07:02:47.080Z,5.07
2023-03-14T07:05:17.442Z,5.10
2023-03-14T07:07:45.775Z,5.30
2023-03-14T07:10:14.370Z,4.97
2023-03-14T07:12:42.808Z,4.67
2023-03-14T07:15:18.616Z,4.17
2023-03-14T07:17:49.132Z,3.70
2023-03-14T07:20:19.651Z,3.47
2023-03-14T07:22:50.536Z,3.47
2023-03-14T07:25:19.552Z,4.00
2023-03-14T07:27:48.978Z,4.10
2023-03-14T07:30:17.790Z,6.00
2023-03-14T07:32:46.107Z,5.63
2023-03-14T07:35:14.622Z,5.50
2023-03-14T07:37:44.531Z,4.33
2023-03-14T07:40:16.097Z,4.10
2023-03-14T07:42:45.498Z,4.17
2023-03-14T07:45:14.108Z,4.03
2023-03-14T07:47:42.558Z,3.90
2023-03-14T07:50:12.385Z,3.73
2023-03-14T07:52:40.787Z,3.60
2023-03-14T07:55:11.503Z,4.67
2023-03-14T07:57:39.858Z,4.20
2023-03-14T08:00:10.041Z,4.07
2023-03-14T08:02:38.832Z,4.17
2023-03-14T08:05:08.095Z,5.83
2023-03-14T08:07:36.657Z,6.20
2023-03-14T08:10:06.403Z,5.07
2023-03-14T08:12:36.188Z,5.87
2023-03-14T08:15:04.711Z,5.83
2023-03-14T08:17:32.996Z,4.87
2023-03-14T08:20:01.386Z,5.23
2023-03-14T08:22:29.877Z,4.70
2023-03-14T08:24:58.444Z,4.23
2023-03-14T08:27:26.742Z,3.97
2023-03-14T08:29:56.731Z,3.73
2023-03-14T08:32:25.323Z,6.03
2023-03-14T08:34:53.691Z,6.80
2023-03-14T08:37:26.674Z,6.93
2023-03-14T08:39:55.965Z,6.07
2023-03-14T08:42:24.640Z,5.57
2023-03-14T08:44:53.740Z,5.27
2023-03-14T08:47:23.593Z,8.43
2023-03-14T08:49:52.042Z,10.07
2023-03-14T08:52:20.820Z,10.00
2023-03-14T08:54:49.611Z,11.63
2023-03-14T08:57:17.897Z,11.20
2023-03-14T08:59:46.423Z,10.63
2023-03-14T09:02:14.850Z,9.13
2023-03-14T09:04:44.722Z,7.20
2023-03-14T09:07:13.045Z,7.03
2023-03-14T09:09:41.460Z,8.23
2023-03-14T09:12:09.991Z,8.23
2023-03-14T09:14:38.556Z,6.97
2023-03-14T09:17:07.465Z,5.40
2023-03-14T09:19:35.894Z,4.37
2023-03-14T09:22:06.062Z,4.70
2023-03-14T09:24:34.618Z,5.43
2023-03-14T09:27:03.080Z,6.40
2023-03-14T09:29:31.493Z,5.83
2023-03-14T09:32:00.844Z,6.80
2023-03-14T09:34:29.282Z,6.57
2023-03-14T09:36:58.120Z,6.77
2023-03-14T09:39:27.950Z,7.73
2023-03-14T09:41:59.498Z,7.17
2023-03-14T09:44:31.103Z,6.37
2023-03-14T09:47:03.631Z,6.10
2023-03-14T09:49:34.722Z,6.47
2023-03-14T09:52:07.352Z,5.30
2023-03-14T09:54:40.035Z,6.67
2023-03-14T09:57:13.356Z,10.03
2023-03-14T09:59:44.226Z,9.33
2023-03-14T10:02:19.535Z,8.40
2023-03-14T10:04:49.445Z,8.67
2023-03-14T10:07:20.516Z,8.77
2023-03-14T10:09:52.589Z,7.30
2023-03-14T10:12:21.922Z,6.20
2023-03-14T10:14:52.451Z,6.50
2023-03-14T10:17:22.023Z,6.83
2023-03-14T10:19:55.137Z,6.70
2023-03-14T10:22:25.483Z,7.07
2023-03-14T10:25:00.334Z,6.90
2023-03-14T10:27:32.019Z,6.97
2023-03-14T10:30:02.270Z,7.43
2023-03-14T10:32:35.557Z,7.00
2023-03-14T10:35:22.528Z,6.73
2023-03-14T10:37:55.594Z,6.70
2023-03-14T10:40:29.983Z,6.53
2023-03-14T10:43:00.150Z,6.10
2023-03-14T10:45:35.494Z,7.53
2023-03-14T10:48:20.456Z,6.37
2023-03-14T10:50:57.739Z,7.53
2023-03-14T10:53:27.809Z,8.03
2023-03-14T10:55:59.380Z,6.93
2023-03-14T10:58:31.902Z,6.03
2023-03-14T11:01:16.848Z,5.23
2023-03-14T11:03:52.122Z,4.93
2023-03-14T11:06:26.115Z,4.67
2023-03-14T11:09:06.636Z,3.73
2023-03-14T11:11:37.849Z,3.87
2023-03-14T11:14:18.533Z,3.63
2023-03-14T11:16:55.872Z,3.80
2023-03-14T11:19:41.292Z,3.50
2023-03-14T11:22:18.733Z,3.87
2023-03-14T11:25:09.692Z,3.60
2023-03-14T11:27:45.178Z,3.40
2023-03-14T11:30:27.867Z,3.90
2023-03-14T11:33:04.576Z,3.87
2023-03-14T11:35:39.029Z,3.33
2023-03-14T11:38:30.660Z,3.30
2023-03-14T11:41:01.180Z,3.20
2023-03-14T11:43:36.029Z,3.30
2023-03-14T11:46:09.870Z,3.60
2023-03-14T11:49:16.927Z,3.42
2023-03-14T11:51:50.316Z,3.25
2023-03-14T11:54:22.900Z,2.83
2023-03-14T11:56:56.663Z,2.42
2023-03-14T11:59:33.704Z,2.70
2023-03-14T12:02:06.542Z,2.47
2023-03-14T12:04:48.018Z,2.50
2023-03-14T12:07:21.766Z,2.40
2023-03-14T12:09:52.644Z,2.80
2023-03-14T12:12:24.618Z,2.22
2023-03-14T12:14:59.977Z,2.17
2023-03-14T12:17:36.392Z,2.10
2023-03-14T12:20:17.295Z,2.05
2023-03-14T12:22:47.181Z,2.40
2023-03-14T12:25:23.507Z,2.47
2023-03-14T12:28:20.452Z,2.45
2023-03-14T12:30:50.651Z,2.70
2023-03-14T12:33:35.493Z,2.38
2023-03-14T12:36:22.269Z,2.22
2023-03-14T12:39:06.816Z,2.17
2023-03-14T12:41:45.902Z,2.28
2023-03-14T12:44:48.664Z,2.38
2023-03-14T12:47:48.460Z,2.42
2023-03-14T12:50:23.905Z,2.38
2023-03-14T12:53:28.599Z,2.70
2023-03-14T12:56:04.248Z,2.35
2023-03-14T12:58:37.786Z,2.50
2023-03-14T13:01:15.852Z,2.53
2023-03-14T13:03:49.634Z,2.42
2023-03-14T13:06:49.408Z,2.40
2023-03-14T13:10:00.489Z,2.92
2023-03-14T13:12:37.277Z,2.65
2023-03-14T13:15:17.781Z,2.92
2023-03-14T13:17:49.310Z,2.85
2023-03-14T13:20:24.131Z,2.80
2023-03-14T13:22:53.371Z,2.83
2023-03-14T13:25:23.661Z,2.90
2023-03-14T13:27:56.777Z,2.47
2023-03-14T13:30:27.811Z,2.50
2023-03-14T13:32:58.130Z,2.75
2023-03-14T13:35:31.692Z,2.95
2023-03-14T13:38:11.453Z,2.50
2023-03-14T13:40:46.213Z,2.80
2023-03-14T13:43:19.316Z,3.20
2023-03-14T13:45:52.442Z,2.55
2023-03-14T13:48:22.038Z,2.40
2023-03-14T13:50:57.627Z,2.75
2023-03-14T13:53:26.325Z,2.78
2023-03-14T13:55:55.416Z,2.42
2023-03-14T13:58:29.168Z,2.60
2023-03-14T14:01:05.171Z,3.05
2023-03-14T14:03:36.432Z,2.67
2023-03-14T14:06:08.365Z,2.90
2023-03-14T14:08:38.343Z,2.78
2023-03-14T14:11:07.472Z,3.10
2023-03-14T14:13:37.621Z,3.20
2023-03-14T14:16:07.350Z,4.00
2023-03-14T14:18:38.167Z,3.70
2023-03-14T14:21:10.185Z,3.45
2023-03-14T14:23:40.036Z,3.30
2023-03-14T14:26:09.454Z,3.35
2023-03-14T14:28:39.499Z,3.25
2023-03-14T14:31:22.169Z,3.72
2023-03-14T14:33:58.005Z,3.67
2023-03-14T14:36:32.201Z,3.60
2023-03-14T14:39:02.846Z,3.20
2023-03-14T14:41:36.668Z,3.80
2023-03-14T14:44:06.615Z,3.55
2023-03-14T14:46:38.606Z,3.35
2023-03-14T14:49:11.929Z,3.20
2023-03-14T14:51:45.455Z,3.53
2023-03-14T14:54:18.025Z,3.42
2023-03-14T14:56:52.839Z,3.30
2023-03-14T14:59:28.295Z,3.70
2023-03-14T15:02:01.139Z,3.92
2023-03-14T15:04:32.050Z,5.63
2023-03-14T15:07:02.106Z,5.33
2023-03-14T15:09:30.478Z,4.85
2023-03-14T15:11:58.891Z,4.80
2023-03-14T15:14:27.345Z,4.38
2023-03-14T15:16:55.897Z,4.85
2023-03-14T15:19:27.985Z,6.70
2023-03-14T15:21:56.460Z,5.50
2023-03-14T15:24:26.524Z,4.75
2023-03-14T15:26:55.044Z,5.63
2023-03-14T15:29:23.470Z,4.30
2023-03-14T15:31:52.008Z,3.57
2023-03-14T15:34:20.363Z,3.90
2023-03-14T15:36:51.250Z,3.75
2023-03-14T15:39:19.587Z,3.90
2023-03-14T15:41:49.835Z,4.80
2023-03-14T15:44:18.297Z,3.83
2023-03-14T15:46:46.720Z,3.60
2023-03-14T15:49:15.418Z,3.50
2023-03-14T15:51:43.785Z,3.20
2023-03-14T15:54:12.179Z,3.70
2023-03-14T15:56:40.891Z,3.10
2023-03-14T15:59:10.849Z,3.27
2023-03-14T16:01:39.260Z,3.00
2023-03-14T16:04:07.747Z,3.57
2023-03-14T16:06:37.449Z,3.80
2023-03-14T16:09:05.857Z,3.07
2023-03-14T16:11:34.379Z,3.83
2023-03-14T16:14:03.063Z,4.47
2023-03-14T16:16:32.917Z,3.97
2023-03-14T16:19:01.421Z,3.87
2023-03-14T16:21:30.217Z,3.90
2023-03-14T16:23:58.577Z,4.07
2023-03-14T16:26:27.049Z,4.03
2023-03-14T16:28:55.371Z,4.15
2023-03-14T16:31:25.268Z,3.83
2023-03-14T16:33:55.415Z,4.20
2023-03-14T16:36:23.778Z,3.90
2023-03-14T16:38:52.188Z,3.97
2023-03-14T16:41:23.193Z,4.23
2023-03-14T16:43:54.343Z,4.33
2023-03-14T16:46:25.655Z,3.97
2023-03-14T16:48:55.497Z,4.63
2023-03-14T16:51:25.366Z,11.57
2023-03-14T16:53:54.183Z,14.50
2023-03-14T16:56:22.751Z,14.43
2023-03-14T16:58:52.223Z,47.03
2023-03-14T17:01:21.309Z,57.27
2023-03-14T17:03:51.699Z,43.03
2023-03-14T17:06:24.101Z,27.33
2023-03-14T17:08:53.057Z,14.27
2023-03-14T17:11:21.481Z,9.25
2023-03-14T17:13:50.211Z,8.30
2023-03-14T17:16:19.573Z,8.27
2023-03-14T17:18:48.127Z,6.97
2023-03-14T17:21:16.534Z,6.73
2023-03-14T17:23:46.466Z,7.57
2023-03-14T17:26:15.793Z,7.53
2023-03-14T17:28:44.163Z,7.40
2023-03-14T17:31:15.740Z,5.70
2023-03-14T17:33:44.708Z,4.93
2023-03-14T17:36:14.569Z,4.43
2023-03-14T17:38:43.045Z,4.73
2023-03-14T17:41:14.116Z,4.57
2023-03-14T17:43:43.101Z,4.97
2023-03-14T17:46:14.908Z,4.47
2023-03-14T17:48:44.258Z,4.77
2023-03-14T17:51:13.192Z,4.57
2023-03-14T17:53:44.358Z,4.67
2023-03-14T17:56:14.391Z,4.50
2023-03-14T17:58:44.208Z,4.27
2023-03-14T18:01:14.442Z,4.00
2023-03-14T18:03:43.052Z,4.20
2023-03-14T18:06:13.506Z,6.50
2023-03-14T18:08:43.989Z,6.90
2023-03-14T18:11:14.496Z,8.80
2023-03-14T18:13:43.361Z,8.83
2023-03-14T18:16:15.489Z,9.50
2023-03-14T18:18:47.037Z,10.43
2023-03-14T18:21:16.862Z,14.23
2023-03-14T18:23:45.491Z,17.13
2023-03-14T18:26:15.592Z,15.37
2023-03-14T18:28:44.244Z,13.77
2023-03-14T18:31:17.124Z,13.37
2023-03-14T18:33:48.095Z,11.97
2023-03-14T18:36:16.768Z,11.40
2023-03-14T18:38:46.759Z,10.17
2023-03-14T18:41:19.052Z,8.70
2023-03-14T18:43:49.652Z,7.67
2023-03-14T18:46:18.915Z,7.33
2023-03-14T18:48:47.421Z,7.60
2023-03-14T18:51:17.270Z,8.53
2023-03-14T18:53:48.547Z,8.90
2023-03-14T18:56:20.222Z,9.20
2023-03-14T18:58:48.938Z,13.47
2023-03-14T19:01:18.574Z,12.70
2023-03-14T19:03:48.592Z,10.77
2023-03-14T19:06:18.241Z,12.00
2023-03-14T19:08:46.742Z,13.47
2023-03-14T19:11:15.766Z,16.07
2023-03-14T19:13:45.622Z,14.73
2023-03-14T19:16:15.913Z,13.23
2023-03-14T19:18:44.858Z,9.93
2023-03-14T19:21:14.772Z,8.17
2023-03-14T19:23:48.982Z,7.93
2023-03-14T19:26:18.714Z,7.40
2023-03-14T19:28:48.504Z,7.00
2023-03-14T19:31:17.052Z,7.20
2023-03-14T19:33:45.915Z,8.47
2023-03-14T19:36:22.858Z,7.50
2023-03-14T19:38:51.690Z,10.03
2023-03-14T19:41:20.762Z,12.80
2023-03-14T19:43:50.788Z,10.33
2023-03-14T19:46:19.574Z,11.40
2023-03-14T19:48:48.761Z,15.93
2023-03-14T19:51:17.973Z,15.47
2023-03-14T19:53:46.611Z,13.10
2023-03-14T19:56:15.038Z,11.00
2023-03-14T19:58:43.836Z,10.70
2023-03-14T20:01:13.985Z,11.20
2023-03-14T20:03:42.431Z,11.40
2023-03-14T20:06:13.253Z,11.30
2023-03-14T20:08:43.800Z,9.70
2023-03-14T20:11:12.891Z,9.47
2023-03-14T20:13:42.638Z,15.93
2023-03-14T20:16:12.576Z,20.10
2023-03-14T20:18:41.110Z,18.03
2023-03-14T20:21:09.804Z,18.13
2023-03-14T20:23:43.784Z,17.43
2023-03-14T20:26:12.411Z,14.53
2023-03-14T20:28:42.787Z,11.20
2023-03-14T20:31:15.273Z,11.83
2023-03-14T20:33:44.066Z,16.70
2023-03-14T20:36:12.670Z,16.93
2023-03-14T20:38:41.342Z,20.47
2023-03-14T20:41:11.099Z,30.17
2023-03-14T20:43:39.633Z,28.23
2023-03-14T20:46:08.544Z,22.90
2023-03-14T20:48:39.629Z,15.90
2023-03-14T20:51:08.130Z,10.97
2023-03-14T20:53:37.275Z,11.53
2023-03-14T20:56:06.723Z,10.20
2023-03-14T20:58:35.829Z,7.63
2023-03-14T21:01:04.606Z,6.53
2023-03-14T21:03:33.213Z,6.10
2023-03-14T21:06:05.685Z,6.77
2023-03-14T21:08:34.091Z,6.87
2023-03-14T21:11:03.386Z,6.43
2023-03-14T21:13:33.833Z,6.30
2023-03-14T21:16:03.327Z,7.80
2023-03-14T21:18:32.936Z,9.90
2023-03-14T21:21:05.567Z,10.00
2023-03-14T21:23:34.818Z,8.63
2023-03-14T21:26:03.786Z,6.57
2023-03-14T21:28:33.344Z,6.27
2023-03-14T21:31:07.697Z,5.47
2023-03-14T21:33:36.229Z,5.57
2023-03-14T21:36:07.330Z,6.37
2023-03-14T21:38:37.022Z,6.20
2023-03-14T21:41:07.977Z,6.40
2023-03-14T21:43:36.502Z,6.27
2023-03-14T21:46:04.929Z,5.97
2023-03-14T21:48:34.198Z,6.73
2023-03-14T21:51:06.728Z,5.40
2023-03-14T21:53:35.829Z,5.87
2023-03-14T21:56:04.602Z,4.90
2023-03-14T21:58:35.684Z,4.90
2023-03-14T22:01:06.661Z,5.17
2023-03-14T22:03:35.879Z,5.80
2023-03-14T22:06:06.161Z,6.10
2023-03-14T22:08:34.416Z,5.93
2023-03-14T22:11:02.734Z,6.37
2023-03-14T22:13:31.357Z,5.70
2023-03-14T22:16:00.094Z,5.30
2023-03-14T22:18:30.450Z,5.03
2023-03-14T22:20:58.940Z,4.67
2023-03-14T22:23:28.750Z,4.70
2023-03-14T22:25:57.101Z,5.00
2023-03-14T22:28:25.619Z,4.53
2023-03-14T22:30:54.050Z,4.53
2023-03-14T22:33:22.699Z,4.73
2023-03-14T22:35:51.884Z,4.83
2023-03-14T22:38:20.812Z,5.17
2023-03-14T22:40:50.848Z,5.97
2023-03-14T22:43:19.559Z,5.27
2023-03-14T22:45:48.421Z,5.10
2023-03-14T22:48:16.852Z,4.90
2023-03-14T22:50:45.124Z,4.90
2023-03-14T22:53:13.647Z,5.00
2023-03-14T22:55:41.977Z,5.10
2023-03-14T22:58:11.968Z,4.80
2023-03-14T23:00:40.993Z,4.73
2023-03-14T23:03:09.395Z,5.13
2023-03-14T23:05:37.768Z,5.97
2023-03-14T23:08:06.585Z,5.50
2023-03-14T23:10:34.974Z,5.43
2023-03-14T23:13:05.792Z,4.87
2023-03-14T23:15:36.404Z,4.90
2023-03-14T23:18:04.786Z,5.10
2023-03-14T23:20:33.333Z,4.13
2023-03-14T23:23:01.750Z,4.00
2023-03-14T23:25:33.616Z,4.40
2023-03-14T23:28:04.252Z,4.40
2023-03-14T23:30:32.729Z,4.70
2023-03-14T23:33:02.578Z,4.10
2023-03-14T23:35:30.983Z,4.00
2023-03-14T23:37:59.407Z,3.87
2023-03-14T23:40:27.823Z,4.37
2023-03-14T23:42:56.299Z,4.60
2023-03-14T23:45:24.957Z,4.07
2023-03-14T23:47:53.251Z,4.40
2023-03-14T23:50:23.023Z,4.40
2023-03-14T23:52:51.469Z,4.70
2023-03-14T23:55:19.939Z,4.23
2023-03-14T23:57:48.274Z,4.47
